createdAt,value
2023-03-30T00:00:25.468Z,100634.45
2023-03-30T00:01:26.372Z,100634.03
2023-03-30T00:02:27.046Z,100633.47
2023-03-30T00:03:27.594Z,100633.81
2023-03-30T00:04:28.146Z,100633.56
2023-03-30T00:05:28.773Z,100633.90
2023-03-30T00:06:29.480Z,100633.82
2023-03-30T00:07:30.163Z,100633.94
2023-03-30T00:08:30.841Z,100633.61
2023-03-30T00:09:30.829Z,100634.20
2023-03-30T00:09:39.556Z,100413.44
2023-03-30T00:10:40.157Z,100635.62
2023-03-30T00:11:40.731Z,100635.45
2023-03-30T00:12:41.393Z,100634.86
2023-03-30T00:13:41.429Z,100635.03
2023-03-30T00:14:42.358Z,100635.15
2023-03-30T00:15:42.998Z,100634.98
2023-03-30T00:16:43.782Z,100635.45
2023-03-30T00:17:45.773Z,100634.70
2023-03-30T00:18:44.923Z,100634.56
2023-03-30T00:19:45.033Z,100634.58
2023-03-30T00:20:45.750Z,100633.77
2023-03-30T00:20:54.402Z,100458.54
2023-03-30T00:21:55.342Z,100623.37
2023-03-30T00:22:55.900Z,100623.20
2023-03-30T00:23:56.651Z,100623.55
2023-03-30T00:24:57.176Z,100624.27
2023-03-30T00:25:57.911Z,100624.55
2023-03-30T00:26:58.608Z,100625.23
2023-03-30T00:27:59.140Z,100625.15
2023-03-30T00:28:59.910Z,100625.58
2023-03-30T00:30:00.411Z,100625.61
2023-03-30T00:31:01.460Z,100625.28
2023-03-30T00:32:02.284Z,100625.20
2023-03-30T00:33:02.913Z,100624.48
2023-03-30T00:33:13.628Z,100425.32
2023-03-30T00:34:14.554Z,100626.09
2023-03-30T00:35:14.708Z,100625.77
2023-03-30T00:36:15.807Z,100625.20
2023-03-30T00:37:16.417Z,100624.55
2023-03-30T00:38:17.189Z,100623.91
2023-03-30T00:39:17.434Z,100622.90
2023-03-30T00:40:18.337Z,100622.02
2023-03-30T00:41:18.525Z,100621.93
2023-03-30T00:42:19.267Z,100621.05
2023-03-30T00:43:19.939Z,100620.63
2023-03-30T00:44:20.667Z,100620.58
2023-03-30T00:44:29.418Z,100386.98
2023-03-30T00:45:30.240Z,100615.43
2023-03-30T00:46:30.878Z,100615.02
2023-03-30T00:47:31.675Z,100615.27
2023-03-30T00:48:32.344Z,100614.47
2023-03-30T00:49:33.161Z,100614.98
2023-03-30T00:50:34.123Z,100614.34
2023-03-30T00:51:35.040Z,100613.75
2023-03-30T00:52:35.911Z,100613.25
2023-03-30T00:53:36.277Z,100612.58
2023-03-30T00:54:37.293Z,100612.14
2023-03-30T00:54:46.508Z,100457.50
2023-03-30T00:55:47.264Z,100608.14
2023-03-30T00:56:48.064Z,100607.75
2023-03-30T00:57:48.027Z,100607.58
2023-03-30T00:58:48.855Z,100607.30
2023-03-30T00:59:49.598Z,100606.87
2023-03-30T01:00:50.361Z,100606.33
2023-03-30T01:01:51.172Z,100605.81
2023-03-30T01:02:52.081Z,100605.52
2023-03-30T01:03:53.049Z,100605.34
2023-03-30T01:04:53.669Z,100605.30
2023-03-30T01:05:02.381Z,100605.22
2023-03-30T01:06:02.492Z,100606.10
2023-03-30T01:07:03.408Z,100606.52
2023-03-30T01:08:05.336Z,100607.75
2023-03-30T01:09:04.309Z,100608.84
2023-03-30T01:10:05.146Z,100609.98
2023-03-30T01:11:06.095Z,100611.25
2023-03-30T01:12:06.849Z,100612.51
2023-03-30T01:13:07.821Z,100613.23
2023-03-30T01:14:08.788Z,100613.41
2023-03-30T01:15:09.710Z,100613.66
2023-03-30T01:16:10.616Z,100613.73
2023-03-30T01:16:19.361Z,100509.37
2023-03-30T01:17:20.004Z,100612.12
2023-03-30T01:18:21.107Z,100611.95
2023-03-30T01:19:20.106Z,100611.88
2023-03-30T01:20:21.308Z,100612.21
2023-03-30T01:21:21.329Z,100611.96
2023-03-30T01:22:22.161Z,100612.81
2023-03-30T01:23:22.526Z,100613.40
2023-03-30T01:24:22.526Z,100614.41
2023-03-30T01:25:23.423Z,100616.02
2023-03-30T01:26:24.265Z,100617.27
2023-03-30T01:27:24.316Z,100619.27
2023-03-30T01:27:32.965Z,100557.08
2023-03-30T01:28:33.872Z,100654.69
2023-03-30T01:29:34.668Z,100654.81
2023-03-30T01:30:35.491Z,100654.31
2023-03-30T01:31:36.247Z,100655.36
2023-03-30T01:32:37.146Z,100655.70
2023-03-30T01:33:38.019Z,100655.88
2023-03-30T01:34:38.799Z,100656.04
2023-03-30T01:35:39.692Z,100656.38
2023-03-30T01:36:40.376Z,100656.55
2023-03-30T01:37:41.206Z,100656.38
2023-03-30T01:38:42.035Z,100657.05
2023-03-30T01:38:53.611Z,100233.49
2023-03-30T01:39:55.348Z,100663.30
2023-03-30T01:40:55.110Z,100662.20
2023-03-30T01:41:55.876Z,100661.44
2023-03-30T01:42:56.623Z,100660.69
2023-03-30T01:43:57.491Z,100659.62
2023-03-30T01:44:58.356Z,100659.04
2023-03-30T01:45:59.115Z,100657.89
2023-03-30T01:46:59.897Z,100656.30
2023-03-30T01:48:00.686Z,100655.25
2023-03-30T01:49:00.728Z,100654.02
2023-03-30T01:49:09.446Z,100500.16
2023-03-30T01:50:09.964Z,100639.59
2023-03-30T01:51:10.720Z,100639.26
2023-03-30T01:52:11.474Z,100638.83
2023-03-30T01:53:12.134Z,100639.05
2023-03-30T01:54:12.984Z,100637.66
2023-03-30T01:55:13.644Z,100636.64
2023-03-30T01:56:14.248Z,100635.34
2023-03-30T01:57:14.976Z,100633.27
2023-03-30T01:58:15.618Z,100632.22
2023-03-30T01:59:16.499Z,100630.35
2023-03-30T02:00:17.312Z,100628.88
2023-03-30T02:01:18.229Z,100626.55
2023-03-30T02:01:27.316Z,100500.63
2023-03-30T02:02:28.158Z,100575.34
2023-03-30T02:03:28.929Z,100575.12
2023-03-30T02:04:29.566Z,100574.36
2023-03-30T02:05:30.288Z,100574.06
2023-03-30T02:06:31.186Z,100572.29
2023-03-30T02:07:32.069Z,100572.23
2023-03-30T02:08:32.939Z,100570.88
2023-03-30T02:09:33.906Z,100568.67
2023-03-30T02:10:34.743Z,100566.05
2023-03-30T02:11:35.587Z,100564.46
2023-03-30T02:11:44.801Z,100396.62
2023-03-30T02:12:45.451Z,100524.23
2023-03-30T02:13:46.133Z,100523.09
2023-03-30T02:14:46.839Z,100522.16
2023-03-30T02:15:47.499Z,100521.63
2023-03-30T02:16:48.182Z,100521.62
2023-03-30T02:17:48.937Z,100521.39
2023-03-30T02:18:49.674Z,100519.84
2023-03-30T02:19:50.583Z,100519.82
2023-03-30T02:20:51.416Z,100519.67
2023-03-30T02:21:52.150Z,100519.59
2023-03-30T02:22:01.446Z,100141.53
2023-03-30T02:23:02.180Z,100526.41
2023-03-30T02:24:02.825Z,100526.09
2023-03-30T02:25:03.646Z,100526.42
2023-03-30T02:26:04.289Z,100527.16
2023-03-30T02:27:04.874Z,100527.69
2023-03-30T02:28:05.494Z,100528.42
2023-03-30T02:29:06.192Z,100528.56
2023-03-30T02:30:06.852Z,100530.02
2023-03-30T02:31:07.804Z,100531.22
2023-03-30T02:32:08.020Z,100533.00
2023-03-30T02:33:08.934Z,100535.42
2023-03-30T02:33:18.504Z,100450.14
2023-03-30T02:34:20.308Z,100570.39
2023-03-30T02:35:19.365Z,100570.69
2023-03-30T02:36:20.320Z,100571.86
2023-03-30T02:37:21.122Z,100573.68
2023-03-30T02:38:21.723Z,100574.27
2023-03-30T02:39:22.669Z,100576.48
2023-03-30T02:40:23.426Z,100578.67
2023-03-30T02:41:24.015Z,100580.55
2023-03-30T02:42:24.773Z,100582.63
2023-03-30T02:43:25.569Z,100583.73
2023-03-30T02:44:26.311Z,100585.17
2023-03-30T02:44:34.931Z,100330.58
2023-03-30T02:45:35.710Z,100602.96
2023-03-30T02:46:36.559Z,100601.78
2023-03-30T02:47:37.177Z,100599.45
2023-03-30T02:48:38.112Z,100597.83
2023-03-30T02:49:38.947Z,100597.20
2023-03-30T02:50:39.764Z,100597.03
2023-03-30T02:51:40.600Z,100596.64
2023-03-30T02:52:41.295Z,100595.63
2023-03-30T02:53:42.030Z,100595.75
2023-03-30T02:54:42.851Z,100594.02
2023-03-30T02:54:51.519Z,100335.28
2023-03-30T02:55:52.426Z,100549.58
2023-03-30T02:56:53.445Z,100548.06
2023-03-30T02:57:53.283Z,100546.27
2023-03-30T02:58:54.521Z,100544.74
2023-03-30T02:59:54.462Z,100542.03
2023-03-30T03:00:57.438Z,100537.38
2023-03-30T03:01:56.236Z,100531.06
2023-03-30T03:02:57.167Z,100524.20
2023-03-30T03:03:57.941Z,100515.18
2023-03-30T03:04:59.886Z,100506.16
2023-03-30T03:05:08.603Z,100182.55
2023-03-30T03:06:09.450Z,100361.28
2023-03-30T03:07:13.875Z,100360.60
2023-03-30T03:08:10.628Z,100360.52
2023-03-30T03:09:11.386Z,100360.76
2023-03-30T03:10:12.075Z,100360.55
2023-03-30T03:11:13.096Z,100360.45
2023-03-30T03:12:13.809Z,100359.86
2023-03-30T03:13:14.522Z,100360.45
2023-03-30T03:14:15.267Z,100360.88
2023-03-30T03:15:15.972Z,100362.23
2023-03-30T03:16:16.103Z,100363.67
2023-03-30T03:16:24.829Z,100009.52
2023-03-30T03:17:25.658Z,100377.55
2023-03-30T03:18:26.652Z,100377.67
2023-03-30T03:19:27.450Z,100378.35
2023-03-30T03:20:28.442Z,100380.05
2023-03-30T03:21:29.355Z,100381.66
2023-03-30T03:22:30.025Z,100382.98
2023-03-30T03:23:30.777Z,100384.64
2023-03-30T03:24:31.390Z,100386.06
2023-03-30T03:25:32.002Z,100387.24
2023-03-30T03:26:32.958Z,100388.97
2023-03-30T03:27:33.648Z,100389.72
2023-03-30T03:27:42.310Z,100324.51
2023-03-30T03:28:43.982Z,100404.58
2023-03-30T03:29:43.829Z,100404.17
2023-03-30T03:30:44.706Z,100404.72
2023-03-30T03:31:45.646Z,100404.83
2023-03-30T03:32:46.650Z,100404.69
2023-03-30T03:33:46.800Z,100404.37
2023-03-30T03:34:46.837Z,100403.73
2023-03-30T03:35:46.885Z,100402.53
2023-03-30T03:36:47.766Z,100400.88
2023-03-30T03:37:48.523Z,100398.73
2023-03-30T03:38:49.365Z,100396.48
2023-03-30T03:38:58.006Z,100270.75
2023-03-30T03:39:58.831Z,100375.25
2023-03-30T03:40:59.679Z,100374.28
2023-03-30T03:42:00.662Z,100373.81
2023-03-30T03:43:01.579Z,100372.91
2023-03-30T03:44:02.404Z,100372.78
2023-03-30T03:45:03.199Z,100372.45
2023-03-30T03:46:03.928Z,100371.31
2023-03-30T03:47:04.838Z,100370.09
2023-03-30T03:48:05.695Z,100367.86
2023-03-30T03:49:06.530Z,100365.38
2023-03-30T03:50:06.513Z,100362.89
2023-03-30T03:50:15.161Z,100247.91
2023-03-30T03:51:15.928Z,100332.33
2023-03-30T03:52:16.860Z,100330.81
2023-03-30T03:53:17.675Z,100329.55
2023-03-30T03:54:18.506Z,100328.83
2023-03-30T03:55:19.401Z,100327.56
2023-03-30T03:56:20.320Z,100326.25
2023-03-30T03:57:21.329Z,100324.41
2023-03-30T03:58:21.999Z,100322.00
2023-03-30T03:59:23.266Z,100319.39
2023-03-30T04:00:23.420Z,100316.09
2023-03-30T04:01:24.188Z,100312.20
2023-03-30T04:01:33.365Z,100000.38
2023-03-30T04:02:33.691Z,100240.53
2023-03-30T04:03:34.307Z,100238.27
2023-03-30T04:04:34.984Z,100236.06
2023-03-30T04:05:35.687Z,100233.53
2023-03-30T04:06:36.366Z,100231.41
2023-03-30T04:07:37.127Z,100228.03
2023-03-30T04:08:37.821Z,100225.37
2023-03-30T04:09:38.517Z,100221.39
2023-03-30T04:10:39.291Z,100216.98
2023-03-30T04:11:40.069Z,100212.37
2023-03-30T04:12:40.818Z,100206.61
2023-03-30T04:12:49.450Z,99883.83
2023-03-30T04:13:50.321Z,100135.37
2023-03-30T04:14:50.952Z,100134.96
2023-03-30T04:15:51.746Z,100135.72
2023-03-30T04:16:52.476Z,100135.63
2023-03-30T04:17:52.994Z,100135.75
2023-03-30T04:18:53.599Z,100137.38
2023-03-30T04:19:54.208Z,100138.25
2023-03-30T04:20:54.696Z,100138.27
2023-03-30T04:21:55.635Z,100138.77
2023-03-30T04:22:56.484Z,100139.80
2023-03-30T04:23:57.467Z,100140.78
2023-03-30T04:24:58.339Z,100142.23
2023-03-30T04:25:07.028Z,99956.95
2023-03-30T04:26:07.691Z,100182.20
2023-03-30T04:27:08.827Z,100181.44
2023-03-30T04:28:09.269Z,100181.14
2023-03-30T04:29:09.956Z,100180.99
2023-03-30T04:30:10.714Z,100181.03
2023-03-30T04:31:11.422Z,100181.39
2023-03-30T04:32:12.182Z,100181.70
2023-03-30T04:33:13.112Z,100183.19
2023-03-30T04:34:13.868Z,100183.58
2023-03-30T04:35:14.700Z,100184.39
2023-03-30T04:35:23.843Z,99978.89
2023-03-30T04:36:24.642Z,100191.75
2023-03-30T04:37:25.376Z,100191.23
2023-03-30T04:38:26.222Z,100190.05
2023-03-30T04:39:27.016Z,100189.67
2023-03-30T04:40:27.839Z,100189.16
2023-03-30T04:41:28.493Z,100188.43
2023-03-30T04:42:29.236Z,100187.83
2023-03-30T04:43:30.060Z,100186.64
2023-03-30T04:44:30.640Z,100185.71
2023-03-30T04:45:31.358Z,100184.52
2023-03-30T04:45:40.030Z,99958.47
2023-03-30T04:46:40.064Z,100164.14
2023-03-30T04:47:40.729Z,100164.30
2023-03-30T04:48:41.377Z,100163.97
2023-03-30T04:49:42.036Z,100162.48
2023-03-30T04:50:42.727Z,100161.39
2023-03-30T04:51:43.284Z,100160.34
2023-03-30T04:52:43.746Z,100158.66
2023-03-30T04:53:44.540Z,100157.18
2023-03-30T04:54:45.252Z,100155.33
2023-03-30T04:55:45.938Z,100153.34
2023-03-30T04:56:46.752Z,100151.16
2023-03-30T04:56:55.344Z,99950.92
2023-03-30T04:57:56.091Z,100138.64
2023-03-30T04:58:56.998Z,100138.91
2023-03-30T04:59:57.711Z,100139.75
2023-03-30T05:00:58.562Z,100140.94
2023-03-30T05:01:59.341Z,100141.83
2023-03-30T05:03:00.046Z,100143.70
2023-03-30T05:04:00.805Z,100145.77
2023-03-30T05:05:01.568Z,100147.39
2023-03-30T05:06:02.218Z,100149.66
2023-03-30T05:07:02.888Z,100151.48
2023-03-30T05:07:11.673Z,99990.94
2023-03-30T05:08:12.233Z,100186.35
2023-03-30T05:09:12.990Z,100185.84
2023-03-30T05:10:13.688Z,100185.32
2023-03-30T05:11:14.329Z,100184.77
2023-03-30T05:12:15.201Z,100184.67
2023-03-30T05:13:15.800Z,100185.27
2023-03-30T05:14:16.545Z,100185.43
2023-03-30T05:15:17.190Z,100185.27
2023-03-30T05:16:17.875Z,100184.67
2023-03-30T05:17:18.619Z,100184.00
2023-03-30T05:18:19.177Z,100183.16
2023-03-30T05:18:27.823Z,99992.97
2023-03-30T05:19:27.876Z,100164.70
2023-03-30T05:20:28.581Z,100163.98
2023-03-30T05:21:29.257Z,100163.64
2023-03-30T05:22:29.827Z,100163.68
2023-03-30T05:23:30.612Z,100163.34
2023-03-30T05:24:31.413Z,100163.09
2023-03-30T05:25:32.164Z,100162.66
2023-03-30T05:26:33.119Z,100162.53
2023-03-30T05:27:33.809Z,100162.27
2023-03-30T05:28:34.611Z,100161.77
2023-03-30T05:28:43.320Z,99996.26
2023-03-30T05:29:44.137Z,100164.74
2023-03-30T05:30:44.975Z,100165.08
2023-03-30T05:31:45.779Z,100165.08
2023-03-30T05:32:46.569Z,100165.52
2023-03-30T05:33:47.173Z,100166.78
2023-03-30T05:34:47.828Z,100167.89
2023-03-30T05:35:48.460Z,100169.39
2023-03-30T05:36:49.110Z,100171.48
2023-03-30T05:37:49.963Z,100171.92
2023-03-30T05:38:50.685Z,100173.34
2023-03-30T05:39:51.424Z,100174.08
2023-03-30T05:40:52.159Z,100175.03
2023-03-30T05:41:00.868Z,99893.09
2023-03-30T05:42:01.419Z,100198.88
2023-03-30T05:43:02.045Z,100198.81
2023-03-30T05:44:02.626Z,100198.64
2023-03-30T05:45:03.420Z,100199.06
2023-03-30T05:46:04.113Z,100199.66
2023-03-30T05:47:04.842Z,100199.66
2023-03-30T05:48:05.618Z,100200.25
2023-03-30T05:49:06.243Z,100200.89
2023-03-30T05:50:06.849Z,100201.70
2023-03-30T05:51:08.135Z,100202.34
2023-03-30T05:52:08.186Z,100202.02
2023-03-30T05:52:16.976Z,100210.45
2023-03-30T05:53:17.808Z,100186.11
2023-03-30T05:54:17.952Z,100185.55
2023-03-30T05:55:18.920Z,100184.53
2023-03-30T05:56:19.887Z,100183.86
2023-03-30T05:57:20.679Z,100183.44
2023-03-30T05:58:21.440Z,100183.23
2023-03-30T05:59:22.300Z,100183.23
2023-03-30T06:00:23.096Z,100183.59
2023-03-30T06:01:23.786Z,100183.94
2023-03-30T06:02:25.014Z,100185.13
2023-03-30T06:03:24.826Z,100186.01
2023-03-30T06:03:33.519Z,99931.67
2023-03-30T06:04:34.318Z,100213.72
2023-03-30T06:05:34.322Z,100213.45
2023-03-30T06:06:35.245Z,100213.33
2023-03-30T06:07:36.013Z,100214.81
2023-03-30T06:08:36.808Z,100216.76
2023-03-30T06:09:37.548Z,100218.78
2023-03-30T06:10:38.394Z,100221.22
2023-03-30T06:11:39.128Z,100224.39
2023-03-30T06:12:40.081Z,100226.92
2023-03-30T06:13:40.801Z,100229.48
2023-03-30T06:14:41.580Z,100232.39
2023-03-30T06:14:50.334Z,99950.25
2023-03-30T06:15:51.318Z,100273.27
2023-03-30T06:16:52.182Z,100273.30
2023-03-30T06:17:53.011Z,100273.29
2023-03-30T06:18:53.643Z,100273.83
2023-03-30T06:19:54.525Z,100274.66
2023-03-30T06:20:55.342Z,100276.73
2023-03-30T06:21:55.901Z,100278.96
2023-03-30T06:22:56.597Z,100281.53
2023-03-30T06:23:57.398Z,100283.60
2023-03-30T06:24:58.034Z,100285.98
2023-03-30T06:25:58.104Z,100289.69
2023-03-30T06:26:06.731Z,100020.70
2023-03-30T06:27:07.582Z,100352.08
2023-03-30T06:28:08.493Z,100351.82
2023-03-30T06:29:09.209Z,100352.24
2023-03-30T06:30:10.998Z,100353.72
2023-03-30T06:31:10.867Z,100354.30
2023-03-30T06:32:11.737Z,100355.62
2023-03-30T06:33:12.554Z,100357.20
2023-03-30T06:34:13.217Z,100359.10
2023-03-30T06:35:14.220Z,100361.75
2023-03-30T06:36:15.144Z,100364.91
2023-03-30T06:37:15.818Z,100367.83
2023-03-30T06:37:24.465Z,99881.53
2023-03-30T06:38:25.161Z,100424.91
2023-03-30T06:39:25.416Z,100425.08
2023-03-30T06:40:26.267Z,100425.42
2023-03-30T06:41:27.137Z,100426.19
2023-03-30T06:42:27.933Z,100426.58
2023-03-30T06:43:28.720Z,100427.05
2023-03-30T06:44:29.570Z,100427.58
2023-03-30T06:45:30.322Z,100428.86
2023-03-30T06:46:31.206Z,100429.83
2023-03-30T06:47:31.772Z,100431.52
2023-03-30T06:48:32.323Z,100433.22
2023-03-30T06:48:41.009Z,100074.11
2023-03-30T06:49:41.592Z,100458.28
2023-03-30T06:50:42.287Z,100458.11
2023-03-30T06:51:43.003Z,100457.59
2023-03-30T06:52:43.716Z,100456.45
2023-03-30T06:53:44.330Z,100457.30
2023-03-30T06:54:45.070Z,100456.91
2023-03-30T06:55:45.834Z,100456.89
2023-03-30T06:56:46.749Z,100456.51
2023-03-30T06:57:47.502Z,100456.49
2023-03-30T06:58:48.356Z,100456.06
2023-03-30T06:59:49.220Z,100455.75
2023-03-30T06:59:57.915Z,100073.78
2023-03-30T07:00:58.804Z,100432.84
2023-03-30T07:01:58.851Z,100433.22
2023-03-30T07:02:59.739Z,100433.98
2023-03-30T07:04:00.722Z,100435.03
2023-03-30T07:05:01.564Z,100435.52
2023-03-30T07:06:02.459Z,100436.91
2023-03-30T07:07:03.621Z,100438.47
2023-03-30T07:08:03.383Z,100439.64
2023-03-30T07:09:04.208Z,100440.87
2023-03-30T07:10:05.066Z,100441.88
2023-03-30T07:10:13.765Z,100069.67
2023-03-30T07:11:14.505Z,100466.81
2023-03-30T07:12:15.474Z,100466.69
2023-03-30T07:13:16.274Z,100465.67
2023-03-30T07:14:17.073Z,100464.48
2023-03-30T07:15:17.981Z,100463.70
2023-03-30T07:16:18.713Z,100462.52
2023-03-30T07:17:19.500Z,100461.84
2023-03-30T07:18:19.537Z,100461.23
2023-03-30T07:19:20.376Z,100459.95
2023-03-30T07:20:21.080Z,100459.16
2023-03-30T07:21:21.933Z,100458.80
2023-03-30T07:21:31.681Z,100098.43
2023-03-30T07:22:32.284Z,100428.56
2023-03-30T07:23:33.083Z,100429.11
2023-03-30T07:24:33.811Z,100429.56
2023-03-30T07:25:35.603Z,100430.27
2023-03-30T07:26:35.447Z,100430.64
2023-03-30T07:27:36.193Z,100431.42
2023-03-30T07:28:36.799Z,100432.31
2023-03-30T07:29:37.548Z,100434.95
2023-03-30T07:30:38.342Z,100438.07
2023-03-30T07:31:39.160Z,100443.46
2023-03-30T07:32:40.177Z,100447.91
2023-03-30T07:32:48.887Z,100342.34
2023-03-30T07:33:49.624Z,100532.33
2023-03-30T07:34:50.532Z,100532.10
2023-03-30T07:35:50.575Z,100531.37
2023-03-30T07:36:51.359Z,100531.67
2023-03-30T07:37:51.463Z,100531.55
2023-03-30T07:38:52.338Z,100531.97
2023-03-30T07:39:53.122Z,100532.45
2023-03-30T07:40:53.990Z,100533.66
2023-03-30T07:41:54.697Z,100534.40
2023-03-30T07:42:55.396Z,100534.56
2023-03-30T07:43:04.604Z,100056.73
2023-03-30T07:44:05.384Z,100546.49
2023-03-30T07:45:05.574Z,100546.34
2023-03-30T07:46:06.463Z,100546.23
2023-03-30T07:47:07.260Z,100546.01
2023-03-30T07:48:08.238Z,100545.88
2023-03-30T07:49:09.093Z,100545.78
2023-03-30T07:50:09.226Z,100545.97
2023-03-30T07:51:10.081Z,100547.27
2023-03-30T07:52:10.837Z,100547.24
2023-03-30T07:53:11.705Z,100546.78
2023-03-30T07:54:12.518Z,100547.97
2023-03-30T07:54:22.000Z,100021.84
2023-03-30T07:55:22.806Z,100557.44
2023-03-30T07:56:22.853Z,100557.78
2023-03-30T07:57:23.820Z,100558.70
2023-03-30T07:58:24.528Z,100559.61
2023-03-30T07:59:25.223Z,100560.64
2023-03-30T08:00:25.935Z,100561.25
2023-03-30T08:01:26.575Z,100562.89
2023-03-30T08:02:27.279Z,100564.28
2023-03-30T08:03:28.204Z,100565.62
2023-03-30T08:04:28.897Z,100567.20
2023-03-30T08:04:38.521Z,100254.71
2023-03-30T08:05:39.110Z,100595.75
2023-03-30T08:06:39.859Z,100594.89
2023-03-30T08:07:40.646Z,100594.23
2023-03-30T08:08:42.468Z,100593.14
2023-03-30T08:09:42.368Z,100592.05
2023-03-30T08:10:43.053Z,100590.77
2023-03-30T08:11:43.789Z,100589.89
2023-03-30T08:12:44.534Z,100588.45
2023-03-30T08:13:45.306Z,100587.42
2023-03-30T08:14:46.058Z,100586.43
2023-03-30T08:14:54.747Z,100569.20
2023-03-30T08:15:55.432Z,100568.97
2023-03-30T08:16:56.265Z,100568.74
2023-03-30T08:17:57.104Z,100568.42
2023-03-30T08:18:58.049Z,100567.53
2023-03-30T08:19:58.695Z,100567.64
2023-03-30T08:20:59.662Z,100567.31
2023-03-30T08:22:00.443Z,100567.39
2023-03-30T08:23:01.169Z,100567.96
2023-03-30T08:24:01.901Z,100567.87
2023-03-30T08:25:01.947Z,100568.61
2023-03-30T08:26:02.734Z,100568.05
2023-03-30T08:26:11.402Z,100264.42
2023-03-30T08:27:12.157Z,100560.92
2023-03-30T08:28:12.912Z,100560.50
2023-03-30T08:29:12.974Z,100560.80
2023-03-30T08:30:13.676Z,100560.21
2023-03-30T08:31:14.075Z,100561.14
2023-03-30T08:32:14.718Z,100561.41
2023-03-30T08:33:15.547Z,100562.08
2023-03-30T08:34:16.408Z,100562.69
2023-03-30T08:35:17.046Z,100563.63
2023-03-30T08:36:17.725Z,100565.23
2023-03-30T08:37:18.606Z,100566.95
2023-03-30T08:37:28.759Z,100261.27
2023-03-30T08:38:29.528Z,100582.68
2023-03-30T08:39:30.415Z,100582.27
2023-03-30T08:40:31.178Z,100582.95
2023-03-30T08:41:31.868Z,100583.38
2023-03-30T08:42:32.537Z,100583.59
2023-03-30T08:43:33.222Z,100584.37
2023-03-30T08:44:34.086Z,100584.61
2023-03-30T08:45:34.899Z,100584.95
2023-03-30T08:46:35.653Z,100585.38
2023-03-30T08:47:36.661Z,100586.15
2023-03-30T08:48:37.403Z,100586.41
2023-03-30T08:48:46.090Z,100324.61
2023-03-30T08:49:46.960Z,100589.20
2023-03-30T08:50:47.884Z,100590.09
2023-03-30T08:51:48.714Z,100590.00
2023-03-30T08:52:49.372Z,100590.45
2023-03-30T08:53:50.167Z,100590.41
2023-03-30T08:54:50.223Z,100591.13
2023-03-30T08:55:51.034Z,100591.14
2023-03-30T08:56:52.015Z,100591.81
2023-03-30T08:57:52.265Z,100592.59
2023-03-30T08:58:52.969Z,100593.72
2023-03-30T08:59:01.669Z,100315.98
2023-03-30T09:00:02.519Z,100607.74
2023-03-30T09:01:03.621Z,100607.42
2023-03-30T09:02:03.322Z,100607.93
2023-03-30T09:03:04.233Z,100608.00
2023-03-30T09:04:05.005Z,100608.08
2023-03-30T09:05:05.068Z,100607.16
2023-03-30T09:06:05.110Z,100606.94
2023-03-30T09:08:05.975Z,100290.20
2023-03-30T09:09:14.949Z,100588.15
2023-03-30T09:10:07.551Z,100588.20
2023-03-30T09:11:11.131Z,100589.17
2023-03-30T09:12:11.487Z,100588.88
2023-03-30T09:13:15.215Z,100589.22
2023-03-30T09:14:20.830Z,100589.73
2023-03-30T09:15:12.799Z,100590.73
2023-03-30T09:16:13.797Z,100591.10
2023-03-30T09:17:17.432Z,100591.38
2023-03-30T09:18:11.649Z,100592.16
2023-03-30T09:19:12.382Z,100593.26
2023-03-30T09:19:21.081Z,100269.58
2023-03-30T09:20:21.874Z,100607.24
2023-03-30T09:21:22.651Z,100606.76
2023-03-30T09:22:23.532Z,100607.22
2023-03-30T09:23:24.305Z,100609.22
2023-03-30T09:24:25.166Z,100609.77
2023-03-30T09:25:25.916Z,100610.92
2023-03-30T09:26:26.943Z,100612.16
2023-03-30T09:27:27.702Z,100613.44
2023-03-30T09:28:28.527Z,100614.21
2023-03-30T09:29:28.787Z,100615.18
2023-03-30T09:30:29.657Z,100616.38
2023-03-30T09:30:38.311Z,100299.58
2023-03-30T09:31:38.363Z,100656.92
2023-03-30T09:32:39.379Z,100657.64
2023-03-30T09:33:39.623Z,100657.17
2023-03-30T09:34:39.921Z,100658.06
2023-03-30T09:35:40.254Z,100657.98
2023-03-30T09:36:40.292Z,100657.55
2023-03-30T09:37:41.132Z,100657.78
2023-03-30T09:38:41.906Z,100658.56
2023-03-30T09:39:42.656Z,100658.45
2023-03-30T09:40:43.499Z,100658.27
2023-03-30T09:41:44.432Z,100658.72
2023-03-30T09:41:53.088Z,100240.85
2023-03-30T09:42:53.758Z,100657.81
2023-03-30T09:43:54.683Z,100658.17
2023-03-30T09:44:55.574Z,100659.28
2023-03-30T09:45:56.297Z,100659.66
2023-03-30T09:46:57.181Z,100661.24
2023-03-30T09:47:58.068Z,100662.59
2023-03-30T09:48:58.742Z,100664.27
2023-03-30T09:49:59.479Z,100665.09
2023-03-30T09:51:00.339Z,100665.66
2023-03-30T09:52:01.304Z,100667.86
2023-03-30T09:52:10.065Z,100182.84
2023-03-30T09:53:10.879Z,100694.37
2023-03-30T09:54:10.949Z,100693.67
2023-03-30T09:55:11.787Z,100693.58
2023-03-30T09:56:12.579Z,100694.13
2023-03-30T09:57:13.659Z,100694.64
2023-03-30T09:58:13.544Z,100695.16
2023-03-30T09:59:14.379Z,100696.12
2023-03-30T10:00:15.115Z,100696.86
2023-03-30T10:01:15.904Z,100697.69
2023-03-30T10:02:16.804Z,100698.73
2023-03-30T10:02:25.351Z,100259.53
2023-03-30T10:03:26.143Z,100709.62
2023-03-30T10:04:26.996Z,100708.57
2023-03-30T10:05:27.733Z,100709.91
2023-03-30T10:06:28.675Z,100710.70
2023-03-30T10:07:29.613Z,100711.98
2023-03-30T10:08:29.656Z,100713.20
2023-03-30T10:09:30.581Z,100713.88
2023-03-30T10:10:31.309Z,100714.68
2023-03-30T10:11:32.135Z,100715.26
2023-03-30T10:12:33.074Z,100716.09
2023-03-30T10:12:42.205Z,100340.12
2023-03-30T10:13:42.992Z,100731.17
2023-03-30T10:14:43.835Z,100731.60
2023-03-30T10:15:44.620Z,100731.48
2023-03-30T10:16:45.333Z,100730.64
2023-03-30T10:17:46.310Z,100731.33
2023-03-30T10:18:47.148Z,100732.34
2023-03-30T10:19:51.734Z,100733.03
2023-03-30T10:20:48.656Z,100732.52
2023-03-30T10:21:49.411Z,100732.24
2023-03-30T10:22:49.650Z,100734.11
2023-03-30T10:22:58.827Z,100313.31
2023-03-30T10:23:59.643Z,100746.94
2023-03-30T10:25:00.494Z,100748.43
2023-03-30T10:26:01.417Z,100748.79
2023-03-30T10:27:02.134Z,100749.44
2023-03-30T10:28:03.073Z,100750.60
2023-03-30T10:29:03.856Z,100750.70
2023-03-30T10:30:05.650Z,100749.92
2023-03-30T10:31:04.910Z,100749.70
2023-03-30T10:32:05.713Z,100749.88
2023-03-30T10:33:06.068Z,100749.91
2023-03-30T10:33:14.831Z,100243.51
2023-03-30T10:34:15.509Z,100753.78
2023-03-30T10:35:16.359Z,100754.50
2023-03-30T10:36:17.206Z,100753.91
2023-03-30T10:37:17.143Z,100755.53
2023-03-30T10:38:17.924Z,100756.45
2023-03-30T10:39:18.235Z,100757.47
2023-03-30T10:40:18.556Z,100758.28
2023-03-30T10:41:19.230Z,100759.36
2023-03-30T10:42:20.106Z,100760.94
2023-03-30T10:43:20.401Z,100762.09
2023-03-30T10:43:29.116Z,100317.83